sensor_id;sensor_type;location;lat;lon;timestamp;temperature;humidity
17795;DHT22;9021;50.882;4.326;2022-07-29T00:01:42;21.70;72.70
17795;DHT22;9021;50.882;4.326;2022-07-29T00:04:08;21.80;73.00
17795;DHT22;9021;50.882;4.326;2022-07-29T00:06:33;21.70;72.90
17795;DHT22;9021;50.882;4.326;2022-07-29T00:08:59;21.80;73.20
17795;DHT22;9021;50.882;4.326;2022-07-29T00:11:24;21.70;73.20
17795;DHT22;9021;50.882;4.326;2022-07-29T00:13:50;21.70;73.30
17795;DHT22;9021;50.882;4.326;2022-07-29T00:16:16;21.70;73.50
17795;DHT22;9021;50.882;4.326;2022-07-29T00:18:41;21.70;73.00
17795;DHT22;9021;50.882;4.326;2022-07-29T00:21:07;21.70;72.70
17795;DHT22;9021;50.882;4.326;2022-07-29T00:23:33;21.70;73.20
17795;DHT22;9021;50.882;4.326;2022-07-29T00:25:58;21.70;73.50
17795;DHT22;9021;50.882;4.326;2022-07-29T00:28:24;21.60;73.50
17795;DHT22;9021;50.882;4.326;2022-07-29T00:30:50;21.70;73.20
17795;DHT22;9021;50.882;4.326;2022-07-29T00:33:15;21.70;73.20
17795;DHT22;9021;50.882;4.326;2022-07-29T00:35:41;21.70;73.70
17795;DHT22;9021;50.882;4.326;2022-07-29T00:38:14;21.60;73.50
17795;DHT22;9021;50.882;4.326;2022-07-29T00:40:41;21.60;73.20
17795;DHT22;9021;50.882;4.326;2022-07-29T00:43:07;21.60;73.50
17795;DHT22;9021;50.882;4.326;2022-07-29T00:45:33;21.50;73.50
17795;DHT22;9021;50.882;4.326;2022-07-29T00:47:59;21.50;73.60
17795;DHT22;9021;50.882;4.326;2022-07-29T00:50:26;21.50;73.80
17795;DHT22;9021;50.882;4.326;2022-07-29T00:52:51;21.50;74.00
17795;DHT22;9021;50.882;4.326;2022-07-29T00:55:18;21.40;73.70
17795;DHT22;9021;50.882;4.326;2022-07-29T00:57:44;21.40;74.10
17795;DHT22;9021;50.882;4.326;2022-07-29T01:00:18;21.40;73.80
17795;DHT22;9021;50.882;4.326;2022-07-29T01:02:44;21.30;74.00
17795;DHT22;9021;50.882;4.326;2022-07-29T01:05:11;21.30;74.30
17795;DHT22;9021;50.882;4.326;2022-07-29T01:07:39;21.20;74.50
17795;DHT22;9021;50.882;4.326;2022-07-29T01:10:08;21.30;74.80
17795;DHT22;9021;50.882;4.326;2022-07-29T01:12:35;21.20;75.30
17795;DHT22;9021;50.882;4.326;2022-07-29T01:15:03;21.20;75.10
17795;DHT22;9021;50.882;4.326;2022-07-29T01:17:39;21.20;75.20
17795;DHT22;9021;50.882;4.326;2022-07-29T01:20:13;21.10;75.30
17795;DHT22;9021;50.882;4.326;2022-07-29T01:22:49;21.00;75.40
17795;DHT22;9021;50.882;4.326;2022-07-29T01:30:55;20.90;76.00
17795;DHT22;9021;50.882;4.326;2022-07-29T01:33:23;20.90;76.10
17795;DHT22;9021;50.882;4.326;2022-07-29T01:36:14;20.90;75.90
17795;DHT22;9021;50.882;4.326;2022-07-29T01:38:42;20.90;76.20
17795;DHT22;9021;50.882;4.326;2022-07-29T01:41:17;20.80;76.40
17795;DHT22;9021;50.882;4.326;2022-07-29T01:43:51;20.80;76.50
17795;DHT22;9021;50.882;4.326;2022-07-29T01:46:30;20.80;76.50
17795;DHT22;9021;50.882;4.326;2022-07-29T01:49:18;20.80;76.40
17795;DHT22;9021;50.882;4.326;2022-07-29T01:51:52;20.70;76.50
17795;DHT22;9021;50.882;4.326;2022-07-29T01:54:24;20.70;77.00
17795;DHT22;9021;50.882;4.326;2022-07-29T01:56:54;20.70;76.50
17795;DHT22;9021;50.882;4.326;2022-07-29T01:59:21;20.60;76.60
17795;DHT22;9021;50.882;4.326;2022-07-29T02:01:46;20.60;77.00
17795;DHT22;9021;50.882;4.326;2022-07-29T02:04:15;20.60;77.00
17795;DHT22;9021;50.882;4.326;2022-07-29T02:06:43;20.50;76.90
17795;DHT22;9021;50.882;4.326;2022-07-29T02:09:10;20.50;77.30
17795;DHT22;9021;50.882;4.326;2022-07-29T02:11:38;20.40;77.60
17795;DHT22;9021;50.882;4.326;2022-07-29T02:14:05;20.30;77.90
17795;DHT22;9021;50.882;4.326;2022-07-29T02:16:33;20.30;77.50
17795;DHT22;9021;50.882;4.326;2022-07-29T02:19:02;20.30;77.90
17795;DHT22;9021;50.882;4.326;2022-07-29T02:21:29;20.20;77.90
17795;DHT22;9021;50.882;4.326;2022-07-29T02:23:59;20.20;77.80
17795;DHT22;9021;50.882;4.326;2022-07-29T02:26:26;20.30;77.50
17795;DHT22;9021;50.882;4.326;2022-07-29T02:28:55;20.30;77.90
17795;DHT22;9021;50.882;4.326;2022-07-29T02:31:25;20.30;77.80
17795;DHT22;9021;50.882;4.326;2022-07-29T02:33:52;20.20;77.70
17795;DHT22;9021;50.882;4.326;2022-07-29T02:36:21;20.20;78.00
17795;DHT22;9021;50.882;4.326;2022-07-29T02:38:48;20.10;78.30
17795;DHT22;9021;50.882;4.326;2022-07-29T02:41:20;20.10;78.60
17795;DHT22;9021;50.882;4.326;2022-07-29T02:44:03;20.00;78.70
17795;DHT22;9021;50.882;4.326;2022-07-29T02:46:35;20.00;78.80
17795;DHT22;9021;50.882;4.326;2022-07-29T02:49:09;20.00;78.90
17795;DHT22;9021;50.882;4.326;2022-07-29T02:51:59;20.00;79.20
17795;DHT22;9021;50.882;4.326;2022-07-29T02:54:56;20.00;79.00
17795;DHT22;9021;50.882;4.326;2022-07-29T02:57:28;19.90;79.60
17795;DHT22;9021;50.882;4.326;2022-07-29T02:59:57;20.00;79.30
17795;DHT22;9021;50.882;4.326;2022-07-29T03:02:27;19.90;79.80
17795;DHT22;9021;50.882;4.326;2022-07-29T03:04:54;19.90;79.70
17795;DHT22;9021;50.882;4.326;2022-07-29T03:07:21;19.90;79.80
17795;DHT22;9021;50.882;4.326;2022-07-29T03:09:49;19.90;79.70
17795;DHT22;9021;50.882;4.326;2022-07-29T03:12:16;19.80;80.20
17795;DHT22;9021;50.882;4.326;2022-07-29T03:14:43;19.70;80.60
17795;DHT22;9021;50.882;4.326;2022-07-29T03:17:09;19.70;80.40
17795;DHT22;9021;50.882;4.326;2022-07-29T03:19:35;19.60;80.80
17795;DHT22;9021;50.882;4.326;2022-07-29T03:22:01;19.60;80.90
17795;DHT22;9021;50.882;4.326;2022-07-29T03:24:28;19.60;80.80
17795;DHT22;9021;50.882;4.326;2022-07-29T03:26:55;19.60;80.70
17795;DHT22;9021;50.882;4.326;2022-07-29T03:29:21;19.60;80.70
17795;DHT22;9021;50.882;4.326;2022-07-29T03:31:47;19.70;80.70
17795;DHT22;9021;50.882;4.326;2022-07-29T03:34:12;19.60;80.60
17795;DHT22;9021;50.882;4.326;2022-07-29T03:36:38;19.50;81.20
17795;DHT22;9021;50.882;4.326;2022-07-29T03:39:04;19.60;81.30
17795;DHT22;9021;50.882;4.326;2022-07-29T03:41:31;19.60;81.60
17795;DHT22;9021;50.882;4.326;2022-07-29T03:43:58;19.50;81.90
17795;DHT22;9021;50.882;4.326;2022-07-29T03:46:26;19.40;81.90
17795;DHT22;9021;50.882;4.326;2022-07-29T03:48:58;19.50;81.60
17795;DHT22;9021;50.882;4.326;2022-07-29T03:51:25;19.40;81.70
17795;DHT22;9021;50.882;4.326;2022-07-29T03:53:52;19.40;82.10
17795;DHT22;9021;50.882;4.326;2022-07-29T03:56:28;19.40;82.40
17795;DHT22;9021;50.882;4.326;2022-07-29T03:59:03;19.40;82.70
17795;DHT22;9021;50.882;4.326;2022-07-29T04:01:29;19.30;83.00
17795;DHT22;9021;50.882;4.326;2022-07-29T04:03:56;19.40;83.00
17795;DHT22;9021;50.882;4.326;2022-07-29T04:06:22;19.20;83.40
17795;DHT22;9021;50.882;4.326;2022-07-29T04:08:47;19.20;83.70
17795;DHT22;9021;50.882;4.326;2022-07-29T04:11:13;19.10;84.10
17795;DHT22;9021;50.882;4.326;2022-07-29T04:13:38;19.00;84.60
17795;DHT22;9021;50.882;4.326;2022-07-29T04:16:04;19.00;85.10
17795;DHT22;9021;50.882;4.326;2022-07-29T04:18:30;19.00;84.90
17795;DHT22;9021;50.882;4.326;2022-07-29T04:20:55;19.10;85.30
17795;DHT22;9021;50.882;4.326;2022-07-29T04:23:21;19.10;85.30
17795;DHT22;9021;50.882;4.326;2022-07-29T04:25:47;19.10;85.90
17795;DHT22;9021;50.882;4.326;2022-07-29T04:28:12;18.90;86.10
17795;DHT22;9021;50.882;4.326;2022-07-29T04:30:38;18.90;86.40
17795;DHT22;9021;50.882;4.326;2022-07-29T04:33:05;18.90;86.40
17795;DHT22;9021;50.882;4.326;2022-07-29T04:35:34;18.90;86.70
17795;DHT22;9021;50.882;4.326;2022-07-29T04:38:00;19.00;86.40
17795;DHT22;9021;50.882;4.326;2022-07-29T04:40:25;19.00;86.20
17795;DHT22;9021;50.882;4.326;2022-07-29T04:42:51;19.10;86.10
17795;DHT22;9021;50.882;4.326;2022-07-29T04:45:20;19.00;86.60
17795;DHT22;9021;50.882;4.326;2022-07-29T04:47:45;19.00;86.80
17795;DHT22;9021;50.882;4.326;2022-07-29T04:50:11;19.00;86.80
17795;DHT22;9021;50.882;4.326;2022-07-29T04:52:37;19.10;87.30
17795;DHT22;9021;50.882;4.326;2022-07-29T04:55:04;18.90;87.90
17795;DHT22;9021;50.882;4.326;2022-07-29T04:57:30;18.90;88.40
17795;DHT22;9021;50.882;4.326;2022-07-29T04:59:56;19.00;87.80
17795;DHT22;9021;50.882;4.326;2022-07-29T05:02:21;19.00;87.80
17795;DHT22;9021;50.882;4.326;2022-07-29T05:04:47;19.00;87.90
17795;DHT22;9021;50.882;4.326;2022-07-29T05:07:13;19.10;87.90
17795;DHT22;9021;50.882;4.326;2022-07-29T05:09:39;19.10;88.30
17795;DHT22;9021;50.882;4.326;2022-07-29T05:12:05;19.10;88.60
17795;DHT22;9021;50.882;4.326;2022-07-29T05:14:31;19.10;88.90
17795;DHT22;9021;50.882;4.326;2022-07-29T05:16:56;19.20;88.70
17795;DHT22;9021;50.882;4.326;2022-07-29T05:19:23;19.20;88.60
17795;DHT22;9021;50.882;4.326;2022-07-29T05:21:49;19.30;88.30
17795;DHT22;9021;50.882;4.326;2022-07-29T05:24:14;19.30;88.50
17795;DHT22;9021;50.882;4.326;2022-07-29T05:27:01;19.30;88.70
17795;DHT22;9021;50.882;4.326;2022-07-29T05:29:26;19.40;88.30
17795;DHT22;9021;50.882;4.326;2022-07-29T05:31:52;19.40;88.00
17795;DHT22;9021;50.882;4.326;2022-07-29T05:34:18;19.50;88.20
17795;DHT22;9021;50.882;4.326;2022-07-29T05:36:45;19.60;87.40
17795;DHT22;9021;50.882;4.326;2022-07-29T05:39:10;19.60;86.80
17795;DHT22;9021;50.882;4.326;2022-07-29T05:41:36;19.80;87.10
17795;DHT22;9021;50.882;4.326;2022-07-29T05:44:03;19.90;87.50
17795;DHT22;9021;50.882;4.326;2022-07-29T05:46:28;19.90;87.70
17795;DHT22;9021;50.882;4.326;2022-07-29T05:48:54;20.00;87.60
17795;DHT22;9021;50.882;4.326;2022-07-29T05:51:19;19.90;86.30
17795;DHT22;9021;50.882;4.326;2022-07-29T05:53:45;19.90;86.30
17795;DHT22;9021;50.882;4.326;2022-07-29T05:56:11;20.00;86.70
17795;DHT22;9021;50.882;4.326;2022-07-29T05:58:36;20.00;86.90
17795;DHT22;9021;50.882;4.326;2022-07-29T06:01:02;20.10;86.00
17795;DHT22;9021;50.882;4.326;2022-07-29T06:03:28;20.30;85.60
17795;DHT22;9021;50.882;4.326;2022-07-29T06:05:54;20.30;85.90
17795;DHT22;9021;50.882;4.326;2022-07-29T06:08:19;20.40;86.10
17795;DHT22;9021;50.882;4.326;2022-07-29T06:10:45;20.40;85.80
17795;DHT22;9021;50.882;4.326;2022-07-29T06:13:11;20.50;85.80
17795;DHT22;9021;50.882;4.326;2022-07-29T06:15:37;20.70;85.10
17795;DHT22;9021;50.882;4.326;2022-07-29T06:18:03;20.80;84.40
17795;DHT22;9021;50.882;4.326;2022-07-29T06:20:29;20.80;84.40
17795;DHT22;9021;50.882;4.326;2022-07-29T06:22:55;20.80;84.30
17795;DHT22;9021;50.882;4.326;2022-07-29T06:25:21;20.90;83.50
17795;DHT22;9021;50.882;4.326;2022-07-29T06:27:46;20.80;83.50
17795;DHT22;9021;50.882;4.326;2022-07-29T06:30:12;20.70;84.40
17795;DHT22;9021;50.882;4.326;2022-07-29T06:32:38;20.90;84.00
17795;DHT22;9021;50.882;4.326;2022-07-29T06:35:04;21.20;84.40
17795;DHT22;9021;50.882;4.326;2022-07-29T06:37:30;21.50;82.70
17795;DHT22;9021;50.882;4.326;2022-07-29T06:39:55;22.20;81.30
17795;DHT22;9021;50.882;4.326;2022-07-29T06:42:43;23.10;80.10
17795;DHT22;9021;50.882;4.326;2022-07-29T06:45:10;24.10;75.40
17795;DHT22;9021;50.882;4.326;2022-07-29T06:47:35;24.80;74.00
17795;DHT22;9021;50.882;4.326;2022-07-29T06:50:01;25.50;72.70
17795;DHT22;9021;50.882;4.326;2022-07-29T06:52:27;26.70;71.80
17795;DHT22;9021;50.882;4.326;2022-07-29T06:54:53;28.00;68.80
17795;DHT22;9021;50.882;4.326;2022-07-29T06:57:20;28.50;66.80
17795;DHT22;9021;50.882;4.326;2022-07-29T06:59:46;27.50;67.30
17795;DHT22;9021;50.882;4.326;2022-07-29T07:02:11;26.40;69.10
17795;DHT22;9021;50.882;4.326;2022-07-29T07:04:37;26.20;69.50
17795;DHT22;9021;50.882;4.326;2022-07-29T07:07:02;26.20;69.90
17795;DHT22;9021;50.882;4.326;2022-07-29T07:09:28;26.20;70.00
17795;DHT22;9021;50.882;4.326;2022-07-29T07:11:54;26.10;70.00
17795;DHT22;9021;50.882;4.326;2022-07-29T07:14:19;25.80;70.10
17795;DHT22;9021;50.882;4.326;2022-07-29T07:16:45;25.80;70.80
17795;DHT22;9021;50.882;4.326;2022-07-29T07:19:10;25.70;71.00
17795;DHT22;9021;50.882;4.326;2022-07-29T07:21:36;25.60;70.90
17795;DHT22;9021;50.882;4.326;2022-07-29T07:24:01;25.50;71.90
17795;DHT22;9021;50.882;4.326;2022-07-29T07:26:27;25.60;71.50
17795;DHT22;9021;50.882;4.326;2022-07-29T07:28:53;25.70;71.90
17795;DHT22;9021;50.882;4.326;2022-07-29T07:31:18;26.40;71.00
17795;DHT22;9021;50.882;4.326;2022-07-29T07:33:44;28.10;69.00
17795;DHT22;9021;50.882;4.326;2022-07-29T07:36:10;29.90;66.50
17795;DHT22;9021;50.882;4.326;2022-07-29T07:38:35;31.50;63.70
17795;DHT22;9021;50.882;4.326;2022-07-29T07:41:01;32.90;60.80
17795;DHT22;9021;50.882;4.326;2022-07-29T07:43:27;34.20;59.60
17795;DHT22;9021;50.882;4.326;2022-07-29T07:45:52;35.30;57.70
17795;DHT22;9021;50.882;4.326;2022-07-29T07:48:18;35.80;56.50
17795;DHT22;9021;50.882;4.326;2022-07-29T07:50:44;36.60;55.30
17795;DHT22;9021;50.882;4.326;2022-07-29T07:53:09;37.40;54.70
17795;DHT22;9021;50.882;4.326;2022-07-29T07:55:40;38.10;54.00
17795;DHT22;9021;50.882;4.326;2022-07-29T07:58:05;38.70;53.40
17795;DHT22;9021;50.882;4.326;2022-07-29T08:00:31;39.30;52.70
17795;DHT22;9021;50.882;4.326;2022-07-29T08:02:58;39.80;51.70
17795;DHT22;9021;50.882;4.326;2022-07-29T08:05:23;40.50;51.00
17795;DHT22;9021;50.882;4.326;2022-07-29T08:07:49;40.90;50.20
17795;DHT22;9021;50.882;4.326;2022-07-29T08:10:16;41.30;49.50
17795;DHT22;9021;50.882;4.326;2022-07-29T08:13:05;41.40;48.90
17795;DHT22;9021;50.882;4.326;2022-07-29T08:15:31;41.70;49.40
17795;DHT22;9021;50.882;4.326;2022-07-29T08:17:57;42.10;48.80
17795;DHT22;9021;50.882;4.326;2022-07-29T08:20:23;42.20;48.70
17795;DHT22;9021;50.882;4.326;2022-07-29T08:22:49;42.30;48.10
17795;DHT22;9021;50.882;4.326;2022-07-29T08:25:14;42.70;48.30
17795;DHT22;9021;50.882;4.326;2022-07-29T08:27:40;43.00;47.50
17795;DHT22;9021;50.882;4.326;2022-07-29T08:30:06;43.30;47.30
17795;DHT22;9021;50.882;4.326;2022-07-29T08:32:32;43.50;47.30
17795;DHT22;9021;50.882;4.326;2022-07-29T08:34:57;43.90;46.90
17795;DHT22;9021;50.882;4.326;2022-07-29T08:37:23;44.20;46.70
17795;DHT22;9021;50.882;4.326;2022-07-29T08:39:49;44.20;46.20
17795;DHT22;9021;50.882;4.326;2022-07-29T08:42:15;44.20;45.70
17795;DHT22;9021;50.882;4.326;2022-07-29T08:44:42;44.30;45.70
17795;DHT22;9021;50.882;4.326;2022-07-29T08:47:08;44.20;45.40
17795;DHT22;9021;50.882;4.326;2022-07-29T08:49:35;44.20;46.00
17795;DHT22;9021;50.882;4.326;2022-07-29T08:52:01;44.10;45.40
17795;DHT22;9021;50.882;4.326;2022-07-29T08:54:27;44.00;45.70
17795;DHT22;9021;50.882;4.326;2022-07-29T08:56:53;44.20;45.50
17795;DHT22;9021;50.882;4.326;2022-07-29T08:59:20;44.10;45.60
17795;DHT22;9021;50.882;4.326;2022-07-29T09:01:48;44.20;45.50
17795;DHT22;9021;50.882;4.326;2022-07-29T09:04:17;44.10;44.80
17795;DHT22;9021;50.882;4.326;2022-07-29T09:06:47;44.10;45.30
17795;DHT22;9021;50.882;4.326;2022-07-29T09:09:13;44.30;45.70
17795;DHT22;9021;50.882;4.326;2022-07-29T09:11:40;44.80;45.20
17795;DHT22;9021;50.882;4.326;2022-07-29T09:14:06;45.00;45.00
17795;DHT22;9021;50.882;4.326;2022-07-29T09:16:54;44.90;43.60
17795;DHT22;9021;50.882;4.326;2022-07-29T09:19:25;45.20;44.50
17795;DHT22;9021;50.882;4.326;2022-07-29T09:21:52;44.80;44.10
17795;DHT22;9021;50.882;4.326;2022-07-29T09:24:25;44.70;44.40
17795;DHT22;9021;50.882;4.326;2022-07-29T09:26:50;44.70;44.50
17795;DHT22;9021;50.882;4.326;2022-07-29T09:29:22;44.90;44.40
17795;DHT22;9021;50.882;4.326;2022-07-29T09:31:49;45.20;44.00
17795;DHT22;9021;50.882;4.326;2022-07-29T09:34:20;45.30;44.10
17795;DHT22;9021;50.882;4.326;2022-07-29T09:36:48;45.10;44.00
17795;DHT22;9021;50.882;4.326;2022-07-29T09:39:16;45.20;43.60
17795;DHT22;9021;50.882;4.326;2022-07-29T09:41:56;45.30;44.00
17795;DHT22;9021;50.882;4.326;2022-07-29T09:44:23;45.70;43.40
17795;DHT22;9021;50.882;4.326;2022-07-29T09:47:00;45.70;42.60
17795;DHT22;9021;50.882;4.326;2022-07-29T09:49:50;45.00;43.80
17795;DHT22;9021;50.882;4.326;2022-07-29T09:52:15;43.10;43.60
17795;DHT22;9021;50.882;4.326;2022-07-29T09:54:41;40.80;45.70
17795;DHT22;9021;50.882;4.326;2022-07-29T09:57:08;39.80;46.10
17795;DHT22;9021;50.882;4.326;2022-07-29T09:59:38;38.60;48.00
17795;DHT22;9021;50.882;4.326;2022-07-29T10:02:14;37.60;48.50
17795;DHT22;9021;50.882;4.326;2022-07-29T10:04:40;36.80;48.50
17795;DHT22;9021;50.882;4.326;2022-07-29T10:07:06;36.00;49.80
17795;DHT22;9021;50.882;4.326;2022-07-29T10:09:33;35.30;50.50
17795;DHT22;9021;50.882;4.326;2022-07-29T10:14:32;34.90;50.30
17795;DHT22;9021;50.882;4.326;2022-07-29T10:16:59;35.40;51.00
17795;DHT22;9021;50.882;4.326;2022-07-29T10:19:29;35.80;50.50
17795;DHT22;9021;50.882;4.326;2022-07-29T10:21:59;35.70;50.70
17795;DHT22;9021;50.882;4.326;2022-07-29T10:24:29;35.80;51.00
17795;DHT22;9021;50.882;4.326;2022-07-29T10:26:56;35.60;50.30
17795;DHT22;9021;50.882;4.326;2022-07-29T10:29:23;35.30;51.20
17795;DHT22;9021;50.882;4.326;2022-07-29T10:32:40;35.00;51.80
17795;DHT22;9021;50.882;4.326;2022-07-29T10:35:26;35.30;50.80
17795;DHT22;9021;50.882;4.326;2022-07-29T10:44:03;39.60;47.60
17795;DHT22;9021;50.882;4.326;2022-07-29T10:46:35;41.00;45.40
17795;DHT22;9021;50.882;4.326;2022-07-29T10:51:56;42.80;44.40
17795;DHT22;9021;50.882;4.326;2022-07-29T10:54:42;43.00;44.40
17795;DHT22;9021;50.882;4.326;2022-07-29T11:07:22;44.60;41.10
17795;DHT22;9021;50.882;4.326;2022-07-29T11:15:07;44.30;42.60
17795;DHT22;9021;50.882;4.326;2022-07-29T11:20:54;42.70;42.90
17795;DHT22;9021;50.882;4.326;2022-07-29T11:31:51;43.80;42.70
17795;DHT22;9021;50.882;4.326;2022-07-29T11:34:32;44.30;42.40
17795;DHT22;9021;50.882;4.326;2022-07-29T11:44:59;43.50;42.20
17795;DHT22;9021;50.882;4.326;2022-07-29T11:47:27;43.50;42.20
17795;DHT22;9021;50.882;4.326;2022-07-29T11:49:55;43.40;41.70
17795;DHT22;9021;50.882;4.326;2022-07-29T11:52:23;43.50;42.50
17795;DHT22;9021;50.882;4.326;2022-07-29T11:54:50;43.10;42.20
17795;DHT22;9021;50.882;4.326;2022-07-29T11:57:19;42.90;42.90
17795;DHT22;9021;50.882;4.326;2022-07-29T11:59:47;43.10;42.80
17795;DHT22;9021;50.882;4.326;2022-07-29T12:02:13;43.30;41.80
17795;DHT22;9021;50.882;4.326;2022-07-29T12:07:15;41.50;43.10
17795;DHT22;9021;50.882;4.326;2022-07-29T12:09:52;40.80;43.30
17795;DHT22;9021;50.882;4.326;2022-07-29T12:12:19;40.80;43.30
17795;DHT22;9021;50.882;4.326;2022-07-29T12:14:44;40.90;43.10
17795;DHT22;9021;50.882;4.326;2022-07-29T12:17:33;41.20;43.60
17795;DHT22;9021;50.882;4.326;2022-07-29T12:20:02;41.70;43.50
17795;DHT22;9021;50.882;4.326;2022-07-29T12:22:35;41.20;43.10
17795;DHT22;9021;50.882;4.326;2022-07-29T12:25:08;40.10;43.50
17795;DHT22;9021;50.882;4.326;2022-07-29T12:27:35;38.70;45.50
17795;DHT22;9021;50.882;4.326;2022-07-29T12:30:09;38.20;45.00
17795;DHT22;9021;50.882;4.326;2022-07-29T12:32:37;38.00;45.80
17795;DHT22;9021;50.882;4.326;2022-07-29T12:35:09;38.10;45.50
17795;DHT22;9021;50.882;4.326;2022-07-29T12:37:35;38.50;45.30
17795;DHT22;9021;50.882;4.326;2022-07-29T12:40:06;37.70;46.10
17795;DHT22;9021;50.882;4.326;2022-07-29T12:42:32;37.20;45.80
17795;DHT22;9021;50.882;4.326;2022-07-29T12:44:58;37.20;47.30
17795;DHT22;9021;50.882;4.326;2022-07-29T12:47:24;37.40;47.60
17795;DHT22;9021;50.882;4.326;2022-07-29T12:49:50;37.60;46.30
17795;DHT22;9021;50.882;4.326;2022-07-29T12:52:30;37.50;45.40
17795;DHT22;9021;50.882;4.326;2022-07-29T12:54:57;37.70;46.30
17795;DHT22;9021;50.882;4.326;2022-07-29T12:57:23;37.60;45.20
17795;DHT22;9021;50.882;4.326;2022-07-29T12:59:59;37.50;46.80
17795;DHT22;9021;50.882;4.326;2022-07-29T13:02:26;37.10;47.40
17795;DHT22;9021;50.882;4.326;2022-07-29T13:04:58;37.10;47.90
17795;DHT22;9021;50.882;4.326;2022-07-29T13:07:26;37.20;46.90
17795;DHT22;9021;50.882;4.326;2022-07-29T13:09:54;37.00;47.20
17795;DHT22;9021;50.882;4.326;2022-07-29T13:12:20;36.60;47.70
17795;DHT22;9021;50.882;4.326;2022-07-29T13:14:49;36.30;46.50
17795;DHT22;9021;50.882;4.326;2022-07-29T13:17:20;36.10;48.10
17795;DHT22;9021;50.882;4.326;2022-07-29T13:20:03;36.10;48.30
17795;DHT22;9021;50.882;4.326;2022-07-29T13:22:29;35.80;47.90
17795;DHT22;9021;50.882;4.326;2022-07-29T13:25:00;35.60;48.30
17795;DHT22;9021;50.882;4.326;2022-07-29T13:27:30;35.40;48.70
17795;DHT22;9021;50.882;4.326;2022-07-29T13:29:59;35.00;47.90
17795;DHT22;9021;50.882;4.326;2022-07-29T13:32:26;34.40;48.40
17795;DHT22;9021;50.882;4.326;2022-07-29T13:34:53;33.40;50.00
17795;DHT22;9021;50.882;4.326;2022-07-29T13:37:19;33.20;50.80
17795;DHT22;9021;50.882;4.326;2022-07-29T13:39:45;33.10;50.90
17795;DHT22;9021;50.882;4.326;2022-07-29T13:42:12;33.10;50.20
17795;DHT22;9021;50.882;4.326;2022-07-29T13:44:39;33.20;51.00
17795;DHT22;9021;50.882;4.326;2022-07-29T13:47:06;33.10;51.40
17795;DHT22;9021;50.882;4.326;2022-07-29T13:49:31;33.20;50.80
17795;DHT22;9021;50.882;4.326;2022-07-29T13:51:57;33.20;49.70
17795;DHT22;9021;50.882;4.326;2022-07-29T13:54:23;32.90;49.30
17795;DHT22;9021;50.882;4.326;2022-07-29T13:56:50;32.80;50.10
17795;DHT22;9021;50.882;4.326;2022-07-29T13:59:15;32.80;50.80
17795;DHT22;9021;50.882;4.326;2022-07-29T14:01:41;32.80;51.40
17795;DHT22;9021;50.882;4.326;2022-07-29T14:04:08;32.80;50.60
17795;DHT22;9021;50.882;4.326;2022-07-29T14:06:34;32.80;51.00
17795;DHT22;9021;50.882;4.326;2022-07-29T14:08:59;32.80;51.70
17795;DHT22;9021;50.882;4.326;2022-07-29T14:11:25;32.90;50.00
17795;DHT22;9021;50.882;4.326;2022-07-29T14:13:51;32.90;50.30
17795;DHT22;9021;50.882;4.326;2022-07-29T14:16:16;32.90;51.10
17795;DHT22;9021;50.882;4.326;2022-07-29T14:18:42;32.90;50.70
17795;DHT22;9021;50.882;4.326;2022-07-29T14:21:08;32.90;50.00
17795;DHT22;9021;50.882;4.326;2022-07-29T14:23:34;32.70;49.10
17795;DHT22;9021;50.882;4.326;2022-07-29T14:26:00;32.60;49.50
17795;DHT22;9021;50.882;4.326;2022-07-29T14:28:26;32.30;50.60
17795;DHT22;9021;50.882;4.326;2022-07-29T14:30:51;32.30;50.70
17795;DHT22;9021;50.882;4.326;2022-07-29T14:33:17;32.50;50.30
17795;DHT22;9021;50.882;4.326;2022-07-29T14:35:43;32.40;50.80
17795;DHT22;9021;50.882;4.326;2022-07-29T14:38:09;32.40;52.30
17795;DHT22;9021;50.882;4.326;2022-07-29T14:40:35;32.00;51.30
17795;DHT22;9021;50.882;4.326;2022-07-29T14:43:01;31.90;51.90
17795;DHT22;9021;50.882;4.326;2022-07-29T14:45:28;31.80;51.70
17795;DHT22;9021;50.882;4.326;2022-07-29T14:47:54;31.80;52.10
17795;DHT22;9021;50.882;4.326;2022-07-29T14:50:19;31.70;52.10
17795;DHT22;9021;50.882;4.326;2022-07-29T14:52:45;31.60;51.20
17795;DHT22;9021;50.882;4.326;2022-07-29T14:55:12;31.70;51.60
17795;DHT22;9021;50.882;4.326;2022-07-29T14:57:37;31.80;51.70
17795;DHT22;9021;50.882;4.326;2022-07-29T15:00:04;31.70;50.60
17795;DHT22;9021;50.882;4.326;2022-07-29T15:02:34;31.60;52.20
17795;DHT22;9021;50.882;4.326;2022-07-29T15:05:00;31.30;53.70
17795;DHT22;9021;50.882;4.326;2022-07-29T15:07:26;31.10;52.90
17795;DHT22;9021;50.882;4.326;2022-07-29T15:09:52;31.10;53.00
17795;DHT22;9021;50.882;4.326;2022-07-29T15:12:18;31.20;52.20
17795;DHT22;9021;50.882;4.326;2022-07-29T15:14:44;31.30;52.00
17795;DHT22;9021;50.882;4.326;2022-07-29T15:17:10;31.20;52.00
17795;DHT22;9021;50.882;4.326;2022-07-29T15:19:35;31.20;51.90
17795;DHT22;9021;50.882;4.326;2022-07-29T15:22:01;31.20;52.80
17795;DHT22;9021;50.882;4.326;2022-07-29T15:24:27;31.30;52.20
17795;DHT22;9021;50.882;4.326;2022-07-29T15:26:52;31.40;51.70
17795;DHT22;9021;50.882;4.326;2022-07-29T15:29:18;31.50;51.40
17795;DHT22;9021;50.882;4.326;2022-07-29T15:31:43;31.60;51.70
17795;DHT22;9021;50.882;4.326;2022-07-29T15:34:09;31.50;52.90
17795;DHT22;9021;50.882;4.326;2022-07-29T15:36:35;31.60;52.50
17795;DHT22;9021;50.882;4.326;2022-07-29T15:39:01;31.50;53.80
17795;DHT22;9021;50.882;4.326;2022-07-29T15:41:26;31.60;51.70
17795;DHT22;9021;50.882;4.326;2022-07-29T15:43:52;31.70;53.00
17795;DHT22;9021;50.882;4.326;2022-07-29T15:46:20;31.80;52.50
17795;DHT22;9021;50.882;4.326;2022-07-29T15:49:08;31.80;51.50
17795;DHT22;9021;50.882;4.326;2022-07-29T15:51:34;31.90;51.90
17795;DHT22;9021;50.882;4.326;2022-07-29T15:54:01;31.90;51.60
17795;DHT22;9021;50.882;4.326;2022-07-29T15:56:28;31.90;52.20
17795;DHT22;9021;50.882;4.326;2022-07-29T15:58:53;31.80;52.10
17795;DHT22;9021;50.882;4.326;2022-07-29T16:01:19;31.70;52.90
17795;DHT22;9021;50.882;4.326;2022-07-29T16:03:45;31.60;52.70
17795;DHT22;9021;50.882;4.326;2022-07-29T16:06:10;31.60;53.50
17795;DHT22;9021;50.882;4.326;2022-07-29T16:08:59;31.60;52.80
17795;DHT22;9021;50.882;4.326;2022-07-29T16:11:25;31.50;52.00
17795;DHT22;9021;50.882;4.326;2022-07-29T16:13:51;31.50;52.30
17795;DHT22;9021;50.882;4.326;2022-07-29T16:16:16;31.50;51.90
17795;DHT22;9021;50.882;4.326;2022-07-29T16:18:43;31.30;52.30
17795;DHT22;9021;50.882;4.326;2022-07-29T16:21:09;31.30;53.30
17795;DHT22;9021;50.882;4.326;2022-07-29T16:23:35;31.20;51.60
17795;DHT22;9021;50.882;4.326;2022-07-29T16:26:01;31.00;51.90
17795;DHT22;9021;50.882;4.326;2022-07-29T16:28:27;31.00;52.90
17795;DHT22;9021;50.882;4.326;2022-07-29T16:30:53;31.00;52.60
17795;DHT22;9021;50.882;4.326;2022-07-29T16:33:19;30.80;53.00
17795;DHT22;9021;50.882;4.326;2022-07-29T16:35:44;30.70;52.90
17795;DHT22;9021;50.882;4.326;2022-07-29T16:38:10;30.70;53.10
17795;DHT22;9021;50.882;4.326;2022-07-29T16:40:36;30.50;53.10
17795;DHT22;9021;50.882;4.326;2022-07-29T16:43:01;30.50;53.40
17795;DHT22;9021;50.882;4.326;2022-07-29T16:45:27;30.50;53.00